Time;durP1;ratioP1;P1;durP2;ratioP2;P2;SDS_P1;SDS_P2;PMS_P1;PMS_P2;Temp;Humidity;BMP_temperature;BMP_pressure;BME280_temperature;BME280_humidity;BME280_pressure;Samples;Min_cycle;Max_cycle;Signal;HPM_P1;HPM_P2
2022/07/19 00:02:00;;;;;;;2.58;2.05;;;22.00;46.00;;;;;;944236;149;27344;-74
2022/07/19 00:04:27;;;;;;;2.30;2.00;;;21.90;46.20;;;;;;943900;149;27330;-74
2022/07/19 00:06:54;;;;;;;3.72;1.98;;;21.90;46.50;;;;;;944659;149;27343;-74
2022/07/19 00:09:20;;;;;;;2.80;2.50;;;21.80;46.80;;;;;;943817;149;27325;-73
2022/07/19 00:11:46;;;;;;;1.98;1.87;;;21.80;47.30;;;;;;944572;149;27469;-74
2022/07/19 00:14:13;;;;;;;2.15;2.05;;;21.80;48.10;;;;;;944842;149;27453;-74
2022/07/19 00:16:39;;;;;;;2.20;2.00;;;21.80;47.60;;;;;;943733;149;27379;-75
2022/07/19 00:19:06;;;;;;;1.85;1.70;;;21.70;47.60;;;;;;944873;149;27394;-74
2022/07/19 00:21:33;;;;;;;2.98;2.40;;;21.60;47.50;;;;;;944361;149;27899;-74
2022/07/19 00:24:00;;;;;;;5.35;2.05;;;21.60;47.60;;;;;;944772;149;27427;-73
2022/07/19 00:26:26;;;;;;;2.08;1.98;;;21.60;47.80;;;;;;947244;148;27460;-74
2022/07/19 00:28:54;;;;;;;2.52;2.33;;;21.50;47.90;;;;;;948507;148;27324;-74
2022/07/19 00:31:19;;;;;;;2.92;2.12;;;21.40;48.10;;;;;;948645;148;27300;-74
2022/07/19 00:33:46;;;;;;;2.47;2.27;;;21.40;48.40;;;;;;948570;148;27340;-74
2022/07/19 00:36:12;;;;;;;3.62;2.40;;;21.40;48.70;;;;;;948883;148;27351;-74
2022/07/19 00:38:39;;;;;;;2.45;2.25;;;21.30;48.90;;;;;;948007;148;27404;-74
2022/07/19 00:41:05;;;;;;;4.53;2.55;;;21.20;49.00;;;;;;949025;148;27331;-73
2022/07/19 00:43:32;;;;;;;2.30;2.10;;;21.20;49.30;;;;;;948853;148;28021;-73
2022/07/19 00:45:59;;;;;;;2.35;2.02;;;21.20;49.40;;;;;;948728;148;27413;-73
2022/07/19 00:48:25;;;;;;;2.58;2.37;;;21.20;49.70;;;;;;948980;148;27847;-73
2022/07/19 00:50:52;;;;;;;3.83;2.47;;;21.10;50.00;;;;;;949039;148;27341;-74
2022/07/19 00:53:18;;;;;;;2.60;2.22;;;21.10;50.40;;;;;;948637;148;28667;-74
2022/07/19 00:55:45;;;;;;;3.37;2.30;;;21.00;50.70;;;;;;948299;148;27413;-74
2022/07/19 00:58:13;;;;;;;2.92;2.12;;;21.00;51.00;;;;;;948572;148;28214;-74
2022/07/19 01:00:39;;;;;;;2.30;2.10;;;20.90;51.20;;;;;;948470;148;27383;-73
2022/07/19 01:03:05;;;;;;;2.22;2.02;;;20.90;51.30;;;;;;948842;148;27327;-73
2022/07/19 01:05:31;;;;;;;2.50;2.30;;;20.90;51.60;;;;;;948104;148;27335;-74
2022/07/19 01:07:58;;;;;;;3.08;2.45;;;20.80;51.80;;;;;;947895;148;27350;-73
2022/07/19 01:10:24;;;;;;;2.15;1.98;;;20.80;52.00;;;;;;948623;148;27336;-73
2022/07/19 01:12:51;;;;;;;2.83;2.50;;;20.70;52.00;;;;;;948866;148;27686;-73
2022/07/19 01:15:20;;;;;;;2.55;2.35;;;20.70;52.10;;;;;;948009;148;27395;-73
2022/07/19 01:17:47;;;;;;;2.72;2.50;;;20.60;52.30;;;;;;948630;148;27424;-75
2022/07/19 01:20:13;;;;;;;2.72;2.20;;;20.60;52.40;;;;;;948793;148;27360;-73
2022/07/19 01:22:40;;;;;;;2.37;2.17;;;20.50;52.40;;;;;;948903;148;27268;-73
2022/07/19 01:25:07;;;;;;;2.50;2.30;;;20.50;52.50;;;;;;949423;148;27444;-74
2022/07/19 01:27:33;;;;;;;2.65;1.95;;;20.40;52.60;;;;;;953823;148;27327;-74
2022/07/19 01:30:00;;;;;;;3.27;2.52;;;20.40;52.60;;;;;;952440;148;27429;-74
2022/07/19 01:32:26;;;;;;;2.52;2.17;;;20.30;52.80;;;;;;953429;148;27402;-74
2022/07/19 01:34:53;;;;;;;2.25;2.05;;;20.20;53.00;;;;;;953287;148;27270;-74
2022/07/19 01:37:19;;;;;;;2.60;2.40;;;20.20;53.00;;;;;;952867;148;27380;-73
2022/07/19 01:39:46;;;;;;;2.47;2.27;;;20.10;53.50;;;;;;953551;148;27371;-73
2022/07/19 01:42:13;;;;;;;2.77;2.10;;;20.10;53.50;;;;;;953671;148;27354;-74
2022/07/19 01:44:39;;;;;;;2.45;2.25;;;20.00;53.60;;;;;;953648;148;27424;-74
2022/07/19 01:47:06;;;;;;;2.72;2.52;;;20.00;53.70;;;;;;953564;148;27295;-74
2022/07/19 01:49:32;;;;;;;2.62;2.22;;;19.90;53.90;;;;;;953052;148;27323;-73
2022/07/19 01:51:59;;;;;;;2.65;2.30;;;19.90;54.00;;;;;;953514;148;27446;-73
2022/07/19 01:54:26;;;;;;;2.47;2.27;;;19.80;54.10;;;;;;953375;148;27375;-74
2022/07/19 01:56:52;;;;;;;3.08;2.60;;;19.80;54.30;;;;;;953181;148;27452;-75
2022/07/19 01:59:19;;;;;;;2.50;2.30;;;19.70;54.40;;;;;;953972;148;27436;-74
2022/07/19 02:01:45;;;;;;;2.42;2.10;;;19.70;54.60;;;;;;953932;148;27308;-74
2022/07/19 02:04:12;;;;;;;2.42;2.10;;;19.60;54.70;;;;;;952901;148;27367;-73
2022/07/19 02:06:38;;;;;;;2.72;2.10;;;19.60;54.80;;;;;;952267;148;27354;-73
2022/07/19 02:09:05;;;;;;;2.52;2.33;;;19.60;55.00;;;;;;953395;148;27372;-75
2022/07/19 02:11:37;;;;;;;2.77;2.50;;;19.50;55.00;;;;;;953443;148;27275;-75
2022/07/19 02:14:04;;;;;;;2.72;2.40;;;19.40;54.90;;;;;;953323;148;27338;-74
2022/07/19 02:16:30;;;;;;;2.08;1.98;;;19.40;55.00;;;;;;953554;148;27319;-74
2022/07/19 02:18:57;;;;;;;3.25;2.00;;;19.30;55.10;;;;;;953639;148;27338;-74
2022/07/19 02:21:24;;;;;;;3.65;2.47;;;19.30;55.30;;;;;;953533;148;27354;-74
2022/07/19 02:23:50;;;;;;;2.85;2.22;;;19.20;55.40;;;;;;953561;148;27327;-74
2022/07/19 02:26:17;;;;;;;3.47;2.60;;;19.20;55.40;;;;;;949357;148;27367;-74
2022/07/19 02:28:43;;;;;;;2.85;2.10;;;19.10;55.60;;;;;;938384;150;27386;-73
2022/07/19 02:31:10;;;;;;;2.30;2.15;;;19.10;56.00;;;;;;939738;150;27392;-74
2022/07/19 02:33:37;;;;;;;2.60;2.40;;;19.10;56.40;;;;;;938972;150;27441;-74
2022/07/19 02:36:06;;;;;;;3.00;2.00;;;19.10;56.60;;;;;;939024;150;27293;-73
2022/07/19 02:38:30;;;;;;;2.27;2.08;;;19.00;56.70;;;;;;938328;150;27355;-73
2022/07/19 02:40:56;;;;;;;2.17;1.98;;;19.00;56.80;;;;;;938903;149;27314;-74
2022/07/19 02:43:23;;;;;;;2.70;2.50;;;19.00;57.00;;;;;;938368;150;27293;-73
2022/07/19 02:45:50;;;;;;;4.05;2.42;;;18.90;57.20;;;;;;939376;150;27365;-73
2022/07/19 02:48:16;;;;;;;2.83;2.63;;;18.90;57.40;;;;;;939064;150;27467;-74
2022/07/19 02:50:43;;;;;;;2.40;2.10;;;18.90;57.50;;;;;;938439;150;27817;-73
2022/07/19 02:53:09;;;;;;;2.47;2.23;;;18.90;57.50;;;;;;939039;150;27317;-73
2022/07/19 02:55:36;;;;;;;2.33;2.12;;;18.90;57.60;;;;;;938493;150;27767;-73
2022/07/19 02:58:03;;;;;;;2.50;2.30;;;18.80;57.70;;;;;;938566;150;27416;-74
2022/07/19 03:00:29;;;;;;;2.60;2.40;;;18.80;57.80;;;;;;939402;150;27341;-73
2022/07/19 03:03:43;;;;;;;2.57;2.37;;;18.70;57.90;;;;;;939285;150;27359;-74
2022/07/19 03:05:22;;;;;;;2.52;2.33;;;18.70;57.90;;;;;;937300;150;27272;-73
2022/07/19 03:07:49;;;;;;;4.50;3.00;;;18.70;57.80;;;;;;938945;150;27333;-73
2022/07/19 03:10:15;;;;;;;2.90;2.37;;;18.60;57.70;;;;;;938710;150;27368;-74
2022/07/19 03:12:42;;;;;;;2.65;2.40;;;18.50;57.60;;;;;;939563;150;27369;-73
2022/07/19 03:15:09;;;;;;;2.90;2.70;;;18.50;57.50;;;;;;939002;150;27654;-73
2022/07/19 03:17:35;;;;;;;4.00;3.60;;;18.40;57.40;;;;;;938016;150;27393;-73
2022/07/19 03:20:02;;;;;;;2.77;2.43;;;18.40;57.50;;;;;;939383;150;27294;-74
2022/07/19 03:22:28;;;;;;;3.00;2.70;;;18.40;57.70;;;;;;938952;150;27434;-73
2022/07/19 03:24:56;;;;;;;2.67;2.47;;;18.30;57.80;;;;;;939034;150;27339;-74
2022/07/19 03:27:22;;;;;;;2.92;2.72;;;18.30;58.00;;;;;;938560;150;28428;-74
2022/07/19 03:29:48;;;;;;;2.57;1.93;;;18.20;58.20;;;;;;939097;150;27309;-74
2022/07/19 03:32:15;;;;;;;2.33;2.10;;;18.20;58.20;;;;;;938693;150;27449;-74
2022/07/19 03:34:41;;;;;;;2.47;2.30;;;18.20;58.50;;;;;;938934;150;27396;-73
2022/07/19 03:37:08;;;;;;;2.73;2.53;;;18.20;58.60;;;;;;939242;150;27868;-73
2022/07/19 03:39:35;;;;;;;2.60;2.40;;;18.20;59.00;;;;;;938873;150;27349;-74
2022/07/19 03:42:01;;;;;;;2.57;2.37;;;18.20;59.20;;;;;;938760;150;27238;-74
2022/07/19 03:44:28;;;;;;;2.63;2.43;;;18.20;60.20;;;;;;939047;150;27405;-74
2022/07/19 03:46:54;;;;;;;3.30;2.40;;;18.20;59.80;;;;;;939144;150;27326;-73
2022/07/19 03:49:21;;;;;;;3.05;2.30;;;18.30;60.10;;;;;;939885;150;27449;-73
2022/07/19 03:51:47;;;;;;;2.77;2.57;;;18.30;60.30;;;;;;939485;150;27401;-74
2022/07/19 03:54:14;;;;;;;5.12;2.65;;;18.20;60.30;;;;;;939445;150;27357;-75
2022/07/19 03:56:41;;;;;;;2.80;2.55;;;18.30;60.30;;;;;;939086;150;27308;-73
2022/07/19 03:59:07;;;;;;;2.47;2.27;;;18.30;60.20;;;;;;939096;150;27362;-73
2022/07/19 04:01:34;;;;;;;2.83;2.62;;;18.30;60.30;;;;;;939141;150;27360;-73
2022/07/19 04:04:00;;;;;;;3.17;2.87;;;18.30;60.10;;;;;;939744;150;27450;-73
2022/07/19 04:06:27;;;;;;;3.57;2.47;;;18.30;60.10;;;;;;938790;150;27295;-74
2022/07/19 04:08:54;;;;;;;2.30;2.10;;;18.30;60.10;;;;;;939058;150;27316;-73
2022/07/19 04:11:20;;;;;;;2.87;2.60;;;18.30;60.00;;;;;;939068;150;27299;-74
2022/07/19 04:13:47;;;;;;;2.37;2.22;;;18.30;60.10;;;;;;939081;150;27308;-73
2022/07/19 04:16:13;;;;;;;2.67;2.37;;;18.40;60.10;;;;;;939413;150;27355;-74
2022/07/19 04:18:40;;;;;;;2.62;2.42;;;18.40;60.00;;;;;;939373;150;27772;-73
2022/07/19 04:21:07;;;;;;;3.33;2.37;;;18.40;60.10;;;;;;939226;150;27309;-73
2022/07/19 04:23:33;;;;;;;2.45;2.25;;;18.40;60.20;;;;;;938877;150;27313;-73
2022/07/19 04:26:00;;;;;;;2.80;2.47;;;18.40;60.40;;;;;;939264;150;27406;-74
2022/07/19 04:28:26;;;;;;;3.47;2.30;;;18.50;60.60;;;;;;942337;149;27474;-73
2022/07/19 04:30:53;;;;;;;5.35;2.52;;;18.50;60.50;;;;;;944206;149;27308;-73
2022/07/19 04:33:20;;;;;;;2.70;2.50;;;18.50;60.50;;;;;;944098;149;27336;-74
2022/07/19 04:35:46;;;;;;;4.00;2.45;;;18.60;60.40;;;;;;944615;149;27379;-73
2022/07/19 04:38:13;;;;;;;4.20;2.58;;;18.70;60.50;;;;;;944497;149;27324;-73
2022/07/19 04:40:39;;;;;;;3.45;2.52;;;18.70;60.50;;;;;;944600;149;27339;-74
2022/07/19 04:43:06;;;;;;;3.90;2.70;;;18.80;60.50;;;;;;944907;149;27320;-74
2022/07/19 04:45:32;;;;;;;2.75;2.42;;;18.80;60.60;;;;;;944596;149;27379;-74
2022/07/19 04:47:59;;;;;;;2.40;2.22;;;18.90;60.50;;;;;;944580;149;27323;-74
2022/07/19 04:50:26;;;;;;;3.72;2.08;;;19.00;60.40;;;;;;944203;149;27352;-73
2022/07/19 04:52:52;;;;;;;4.35;2.40;;;19.10;60.10;;;;;;944380;149;27439;-74
2022/07/19 04:55:19;;;;;;;4.22;2.70;;;19.20;60.00;;;;;;944254;149;27726;-73
2022/07/19 04:57:45;;;;;;;2.33;2.00;;;19.40;60.00;;;;;;944024;149;27415;-74
2022/07/19 05:00:12;;;;;;;2.75;2.37;;;19.50;60.10;;;;;;943817;149;27316;-73
2022/07/19 05:02:39;;;;;;;5.55;2.12;;;19.80;60.50;;;;;;944399;149;27328;-74
2022/07/19 05:05:05;;;;;;;3.90;2.33;;;20.10;61.10;;;;;;944067;149;27334;-73
2022/07/19 05:07:32;;;;;;;3.87;2.00;;;20.60;61.90;;;;;;944450;149;27367;-75
2022/07/19 05:09:59;;;;;;;4.28;2.27;;;21.20;62.30;;;;;;944682;149;27448;-74
2022/07/19 05:12:25;;;;;;;3.60;2.42;;;21.90;62.30;;;;;;943708;149;27280;-75
2022/07/19 05:14:52;;;;;;;2.60;2.05;;;22.70;61.50;;;;;;943677;149;27320;-73
2022/07/19 05:17:18;;;;;;;3.50;2.35;;;23.60;60.50;;;;;;943994;149;27411;-74
2022/07/19 05:19:45;;;;;;;2.47;2.27;;;24.50;59.50;;;;;;944692;149;27445;-74
2022/07/19 05:22:11;;;;;;;4.83;2.58;;;25.50;58.50;;;;;;944825;149;28476;-74
2022/07/19 05:24:38;;;;;;;3.40;1.75;;;26.40;57.50;;;;;;944308;149;27618;-75
2022/07/19 05:27:04;;;;;;;2.70;2.02;;;27.40;56.50;;;;;;944034;149;27298;-74
2022/07/19 05:29:31;;;;;;;4.50;2.10;;;28.30;55.40;;;;;;946472;148;27474;-75
2022/07/19 05:31:58;;;;;;;7.05;2.27;;;29.20;54.30;;;;;;947874;148;27343;-74
2022/07/19 05:34:24;;;;;;;5.03;1.90;;;30.10;53.20;;;;;;947463;148;27325;-74
2022/07/19 05:36:51;;;;;;;2.90;1.80;;;31.00;52.00;;;;;;948067;148;27301;-75
2022/07/19 05:39:17;;;;;;;2.72;1.72;;;31.80;50.90;;;;;;948469;148;27313;-75
2022/07/19 05:41:44;;;;;;;3.70;2.15;;;32.70;49.50;;;;;;948647;148;27363;-74
2022/07/19 05:44:11;;;;;;;7.97;1.80;;;33.50;48.10;;;;;;948378;148;27313;-75
2022/07/19 05:46:40;;;;;;;1.80;1.55;;;34.30;47.00;;;;;;948818;148;27460;-75
2022/07/19 05:49:04;;;;;;;2.95;1.70;;;35.00;46.00;;;;;;947326;148;26215;-75
2022/07/19 05:51:30;;;;;;;3.58;1.92;;;35.70;44.70;;;;;;948214;148;27477;-75
2022/07/19 05:53:57;;;;;;;4.92;2.40;;;36.40;43.80;;;;;;948614;148;27848;-75
2022/07/19 05:56:24;;;;;;;3.25;1.60;;;37.00;42.80;;;;;;948574;148;26581;-75
2022/07/19 05:58:50;;;;;;;3.42;1.57;;;37.60;41.90;;;;;;948963;148;26278;-75
2022/07/19 06:01:22;;;;;;;2.17;1.85;;;38.20;41.00;;;;;;947041;148;26272;-75
2022/07/19 06:03:47;;;;;;;3.30;1.70;;;38.90;40.10;;;;;;948198;148;26252;-75
2022/07/19 06:06:13;;;;;;;3.50;1.52;;;39.40;39.20;;;;;;948388;148;26265;-75
2022/07/19 06:08:39;;;;;;;2.55;1.50;;;39.90;38.00;;;;;;948166;148;26317;-75
2022/07/19 06:11:06;;;;;;;2.83;1.50;;;40.40;37.10;;;;;;948288;148;26266;-75
2022/07/19 06:13:33;;;;;;;2.62;1.50;;;40.80;36.10;;;;;;948566;148;26321;-75
2022/07/19 06:15:59;;;;;;;2.35;1.45;;;41.20;35.60;;;;;;948770;148;26207;-75
2022/07/19 06:18:26;;;;;;;1.70;1.60;;;41.50;35.00;;;;;;948303;148;26231;-75
2022/07/19 06:20:52;;;;;;;5.65;1.62;;;41.80;34.50;;;;;;948535;148;26255;-75
2022/07/19 06:23:19;;;;;;;3.40;1.60;;;42.10;33.80;;;;;;948088;148;26348;-75
2022/07/19 06:25:46;;;;;;;3.05;1.70;;;42.40;33.30;;;;;;948749;148;26324;-76
2022/07/19 06:28:12;;;;;;;3.33;1.70;;;42.80;32.60;;;;;;948669;148;26216;-76
2022/07/19 06:30:39;;;;;;;2.75;1.50;;;43.10;31.90;;;;;;938828;150;26196;-76
2022/07/19 06:33:05;;;;;;;3.42;1.90;;;43.50;31.60;;;;;;938855;150;26204;-76
2022/07/19 06:35:32;;;;;;;3.77;1.60;;;43.80;31.10;;;;;;938498;150;26241;-76
2022/07/19 06:37:58;;;;;;;2.20;1.60;;;44.10;30.50;;;;;;938420;150;26261;-76
2022/07/19 06:40:25;;;;;;;2.90;1.50;;;44.40;30.10;;;;;;938286;150;26313;-76
2022/07/19 06:42:52;;;;;;;4.00;1.45;;;44.80;29.80;;;;;;938793;150;26201;-76
2022/07/19 06:45:18;;;;;;;4.67;1.30;;;45.10;29.40;;;;;;938181;150;26201;-76
2022/07/19 06:47:46;;;;;;;2.45;1.55;;;45.50;28.90;;;;;;938604;150;26346;-76
2022/07/19 06:50:11;;;;;;;2.92;1.90;;;45.90;28.70;;;;;;938894;150;26276;-76
2022/07/19 06:52:38;;;;;;;2.12;1.45;;;46.20;28.40;;;;;;938858;150;26385;-76
2022/07/19 06:55:05;;;;;;;2.05;1.30;;;46.50;27.80;;;;;;938721;150;26346;-76
2022/07/19 06:57:31;;;;;;;7.10;1.45;;;46.90;27.50;;;;;;939012;150;26277;-76
2022/07/19 06:59:58;;;;;;;7.53;1.42;;;47.20;27.10;;;;;;939048;150;26252;-76
2022/07/19 07:02:24;;;;;;;1.57;1.20;;;47.50;26.70;;;;;;939042;150;26253;-76
2022/07/19 07:04:51;;;;;;;2.72;1.17;;;47.80;26.40;;;;;;939679;150;26371;-76
2022/07/19 07:07:17;;;;;;;2.98;1.32;;;48.00;26.00;;;;;;938441;149;26337;-76
2022/07/19 07:09:44;;;;;;;3.10;1.50;;;48.30;25.80;;;;;;938193;150;26206;-76
2022/07/19 07:12:11;;;;;;;2.70;1.20;;;48.40;25.60;;;;;;938299;150;26169;-76
2022/07/19 07:14:37;;;;;;;4.92;1.30;;;48.70;25.30;;;;;;939513;150;26257;-76
2022/07/19 07:17:04;;;;;;;1.95;1.30;;;49.00;25.10;;;;;;939404;150;26288;-76
2022/07/19 07:19:30;;;;;;;1.25;1.12;;;49.10;24.60;;;;;;939053;150;26264;-77
2022/07/19 07:22:01;;;;;;;1.00;0.90;;;49.40;24.30;;;;;;938817;150;26252;-77
2022/07/19 07:24:26;;;;;;;1.27;1.17;;;49.50;24.00;;;;;;939153;150;26245;-76
2022/07/19 07:26:53;;;;;;;2.17;1.17;;;49.70;23.90;;;;;;939353;150;26276;-76
2022/07/19 07:29:19;;;;;;;2.90;1.22;;;49.80;23.60;;;;;;938625;150;26654;-76
2022/07/19 07:31:46;;;;;;;3.52;1.12;;;50.00;23.50;;;;;;938912;150;26760;-76
2022/07/19 07:34:13;;;;;;;2.83;1.02;;;50.10;23.30;;;;;;938978;150;26338;-76
2022/07/19 07:36:39;;;;;;;2.25;1.10;;;50.20;23.00;;;;;;938363;150;26325;-76
2022/07/19 07:39:06;;;;;;;3.80;1.20;;;50.30;23.00;;;;;;938284;149;26214;-76
2022/07/19 07:41:32;;;;;;;3.08;1.05;;;50.30;23.00;;;;;;938056;150;26382;-76
2022/07/19 07:43:59;;;;;;;0.95;0.95;;;50.30;22.80;;;;;;939450;150;26252;-77
2022/07/19 07:46:25;;;;;;;1.02;1.00;;;50.50;22.60;;;;;;939375;150;26338;-76
2022/07/19 07:48:52;;;;;;;1.20;1.10;;;50.60;22.30;;;;;;939400;150;26159;-76
2022/07/19 07:51:19;;;;;;;3.98;1.87;;;50.70;22.10;;;;;;939109;150;26805;-76
2022/07/19 07:53:45;;;;;;;1.05;1.00;;;50.60;21.70;;;;;;938988;150;26273;-76
2022/07/19 07:56:12;;;;;;;2.92;1.12;;;50.50;21.60;;;;;;939351;150;26370;-76
2022/07/19 07:58:38;;;;;;;2.20;1.37;;;50.30;21.70;;;;;;938471;150;26230;-76
2022/07/19 08:01:05;;;;;;;1.22;1.07;;;50.10;21.70;;;;;;939551;150;26687;-76
2022/07/19 08:03:32;;;;;;;0.98;0.85;;;50.00;21.70;;;;;;939214;150;26330;-76
2022/07/19 08:05:58;;;;;;;1.50;1.30;;;49.90;21.50;;;;;;938551;150;26189;-76
2022/07/19 08:08:26;;;;;;;1.65;1.15;;;50.00;21.60;;;;;;938721;150;26336;-76
2022/07/19 08:10:51;;;;;;;2.02;1.30;;;49.90;21.40;;;;;;939506;150;26311;-76
2022/07/19 08:13:18;;;;;;;2.15;1.50;;;49.90;21.30;;;;;;938957;150;26238;-76
2022/07/19 08:15:45;;;;;;;2.98;1.40;;;49.80;21.40;;;;;;939650;150;26307;-76
2022/07/19 08:18:11;;;;;;;3.70;1.12;;;49.90;21.40;;;;;;939432;150;26307;-76
2022/07/19 08:20:38;;;;;;;1.75;1.27;;;49.90;21.50;;;;;;939215;150;26342;-76
2022/07/19 08:23:04;;;;;;;0.98;0.80;;;50.10;21.40;;;;;;939265;150;26320;-76
2022/07/19 08:25:32;;;;;;;1.10;0.93;;;50.30;21.30;;;;;;939350;150;26334;-76
2022/07/19 08:27:57;;;;;;;1.05;0.85;;;50.40;21.10;;;;;;938293;150;26220;-76
2022/07/19 08:30:24;;;;;;;4.33;1.10;;;50.50;20.90;;;;;;938671;150;26300;-76
2022/07/19 08:32:51;;;;;;;1.22;1.10;;;50.60;20.90;;;;;;939147;150;26305;-76
2022/07/19 08:35:17;;;;;;;2.85;0.95;;;50.70;20.90;;;;;;938348;150;26245;-77
2022/07/19 08:37:44;;;;;;;4.37;1.02;;;50.70;21.10;;;;;;939446;150;26162;-76
2022/07/19 08:40:10;;;;;;;1.65;1.02;;;50.70;20.60;;;;;;938599;150;26930;-76
2022/07/19 08:42:37;;;;;;;1.15;0.90;;;50.80;20.50;;;;;;939114;150;26225;-76
2022/07/19 08:45:04;;;;;;;2.90;1.42;;;50.80;20.50;;;;;;938245;150;26238;-76
2022/07/19 08:47:31;;;;;;;0.85;0.75;;;51.00;20.50;;;;;;938846;150;26256;-76
2022/07/19 08:49:57;;;;;;;1.02;0.95;;;51.20;20.40;;;;;;939216;150;26234;-76
2022/07/19 08:52:23;;;;;;;1.95;0.85;;;51.40;20.30;;;;;;938299;150;26335;-77
2022/07/19 08:54:50;;;;;;;3.95;0.95;;;51.60;20.20;;;;;;939501;150;26178;-77
2022/07/19 09:00:01;;;;;;;3.55;1.02;;;52.00;20.00;;;;;;939141;150;26269;-77
2022/07/19 09:02:28;;;;;;;1.15;0.98;;;52.20;19.90;;;;;;939397;150;26365;-77
2022/07/19 09:05:05;;;;;;;3.50;1.10;;;52.40;19.70;;;;;;938905;150;26240;-77
2022/07/19 09:07:30;;;;;;;3.45;1.10;;;52.60;19.60;;;;;;937955;150;26269;-76
2022/07/19 09:09:56;;;;;;;2.20;1.15;;;52.80;19.50;;;;;;939090;150;26372;-76
2022/07/19 09:12:23;;;;;;;2.05;1.10;;;52.90;19.10;;;;;;935835;150;26330;-77
2022/07/19 09:14:49;;;;;;;0.80;0.70;;;52.90;19.20;;;;;;939191;150;26277;-77
2022/07/19 09:17:20;;;;;;;1.12;1.00;;;52.90;19.10;;;;;;937510;150;26261;-76
2022/07/19 09:19:45;;;;;;;0.70;0.70;;;52.90;18.90;;;;;;939145;150;26230;-77
2022/07/19 09:22:15;;;;;;;1.22;1.00;;;52.90;18.90;;;;;;939396;150;26236;-76
2022/07/19 09:24:44;;;;;;;1.67;1.20;;;52.80;18.70;;;;;;938725;150;26631;-76
2022/07/19 09:27:10;;;;;;;1.92;1.10;;;52.90;18.80;;;;;;939259;150;26264;-76
2022/07/19 09:29:37;;;;;;;0.98;0.90;;;52.90;18.80;;;;;;938724;150;26226;-77
2022/07/19 09:32:04;;;;;;;1.00;0.88;;;52.90;18.80;;;;;;938679;150;26276;-76
2022/07/19 09:34:30;;;;;;;2.67;1.07;;;52.90;18.70;;;;;;939616;150;26245;-76
2022/07/19 09:37:21;;;;;;;0.80;0.70;;;53.00;18.70;;;;;;939236;150;28287;-77
2022/07/19 09:39:50;;;;;;;6.90;1.17;;;53.00;18.40;;;;;;938838;150;26204;-77
2022/07/19 09:42:16;;;;;;;1.65;0.80;;;53.10;18.20;;;;;;938828;150;26319;-77
2022/07/19 09:44:43;;;;;;;1.65;0.80;;;53.20;18.20;;;;;;938836;150;26354;-77
2022/07/19 09:47:09;;;;;;;0.98;0.88;;;53.20;18.00;;;;;;938553;150;26260;-77
2022/07/19 09:49:36;;;;;;;1.32;1.10;;;53.20;18.00;;;;;;938971;150;26556;-76
2022/07/19 09:52:03;;;;;;;2.05;0.90;;;53.10;17.90;;;;;;938160;150;26390;-77
2022/07/19 09:54:29;;;;;;;0.90;0.82;;;53.00;17.70;;;;;;938987;150;26308;-76
2022/07/19 09:56:56;;;;;;;1.57;0.80;;;52.90;17.70;;;;;;939202;150;26308;-76
2022/07/19 09:59:22;;;;;;;1.80;0.85;;;52.60;17.70;;;;;;938542;150;26349;-77
2022/07/19 10:01:49;;;;;;;0.75;0.75;;;52.30;17.60;;;;;;938952;150;26898;-76
2022/07/19 10:04:16;;;;;;;1.25;1.07;;;52.00;17.60;;;;;;938904;150;26205;-77
2022/07/19 10:06:42;;;;;;;1.10;1.00;;;51.60;17.60;;;;;;938600;150;26287;-76
2022/07/19 10:09:09;;;;;;;0.80;0.80;;;51.30;17.50;;;;;;938547;150;26225;-76
2022/07/19 10:11:35;;;;;;;1.10;0.80;;;50.90;17.60;;;;;;939283;150;26347;-76
2022/07/19 10:14:02;;;;;;;1.40;1.30;;;50.40;17.60;;;;;;938495;150;26244;-77
2022/07/19 10:16:40;;;;;;;3.70;1.12;;;49.90;17.70;;;;;;938376;150;26365;-76
2022/07/19 10:19:28;;;;;;;1.25;1.15;;;49.30;17.70;;;;;;939531;149;27734;-76
2022/07/19 10:21:55;;;;;;;1.82;1.10;;;48.80;17.90;;;;;;939106;150;26301;-76
2022/07/19 10:24:39;;;;;;;1.22;1.02;;;48.20;18.20;;;;;;938652;150;26357;-76
2022/07/19 10:27:06;;;;;;;1.30;1.20;;;47.60;18.40;;;;;;919480;150;26261;-76
2022/07/19 10:29:32;;;;;;;1.40;1.00;;;47.00;18.30;;;;;;938428;150;26213;-77
2022/07/19 10:31:59;;;;;;;1.98;1.12;;;46.40;18.40;;;;;;938968;149;28016;-76
2022/07/19 10:34:26;;;;;;;1.67;1.22;;;45.80;18.60;;;;;;942841;149;26217;-76
2022/07/19 10:36:53;;;;;;;2.00;1.20;;;45.20;18.60;;;;;;944503;149;26189;-76
2022/07/19 10:39:19;;;;;;;1.35;1.25;;;44.70;18.80;;;;;;943959;149;26264;-76
2022/07/19 10:42:03;;;;;;;1.42;1.30;;;44.20;19.10;;;;;;944187;149;28051;-76
2022/07/19 10:44:30;;;;;;;2.35;1.27;;;43.70;19.20;;;;;;940583;149;26343;-76
2022/07/19 10:46:56;;;;;;;2.02;1.32;;;43.20;19.50;;;;;;944036;149;26244;-76
2022/07/19 10:49:44;;;;;;;1.42;1.32;;;42.80;19.60;;;;;;944116;149;26263;-76
2022/07/19 10:52:30;;;;;;;1.67;1.57;;;42.40;19.90;;;;;;943307;149;26253;-76
2022/07/19 10:55:19;;;;;;;1.27;1.17;;;41.90;20.00;;;;;;944871;149;27412;-76
2022/07/19 10:57:45;;;;;;;1.45;1.35;;;41.50;20.40;;;;;;943858;149;26341;-76
2022/07/19 11:00:17;;;;;;;2.10;1.42;;;41.10;20.30;;;;;;943757;149;26272;-76
2022/07/19 11:02:44;;;;;;;1.92;1.35;;;40.80;20.50;;;;;;943919;149;26260;-76
2022/07/19 11:05:23;;;;;;;1.30;1.20;;;40.60;20.60;;;;;;944408;149;26269;-76
2022/07/19 11:07:52;;;;;;;1.32;1.20;;;40.30;20.70;;;;;;943387;149;26270;-75
2022/07/19 11:10:27;;;;;;;1.30;1.20;;;40.20;21.00;;;;;;944343;149;26224;-75
2022/07/19 11:12:51;;;;;;;1.20;1.10;;;40.00;21.10;;;;;;943571;149;26252;-75
2022/07/19 11:15:18;;;;;;;1.70;1.60;;;39.80;21.10;;;;;;944163;149;27373;-76
2022/07/19 11:17:50;;;;;;;1.05;1.05;;;39.70;21.30;;;;;;943971;149;26330;-76
2022/07/19 11:20:19;;;;;;;1.45;1.35;;;39.50;21.40;;;;;;942959;149;26216;-75
2022/07/19 11:22:46;;;;;;;1.50;1.40;;;39.30;21.40;;;;;;943912;149;27847;-75
2022/07/19 11:25:13;;;;;;;1.20;1.10;;;39.20;21.50;;;;;;944078;149;27809;-75
2022/07/19 11:27:45;;;;;;;1.10;1.02;;;39.10;21.50;;;;;;944404;149;27433;-76
2022/07/19 11:30:12;;;;;;;1.20;1.10;;;39.00;21.60;;;;;;943935;149;26249;-76
2022/07/19 11:32:38;;;;;;;1.95;1.40;;;38.90;21.80;;;;;;941676;149;26253;-76
2022/07/19 11:35:05;;;;;;;2.25;1.40;;;38.80;21.90;;;;;;939441;150;27380;-76
2022/07/19 11:37:31;;;;;;;0.95;0.95;;;38.80;22.00;;;;;;938509;150;26357;-76
2022/07/19 11:39:58;;;;;;;1.55;1.12;;;38.70;22.00;;;;;;937927;150;27465;-76
2022/07/19 11:42:30;;;;;;;1.70;1.20;;;38.70;21.90;;;;;;939019;150;26174;-76
2022/07/19 11:44:56;;;;;;;2.52;1.60;;;38.60;21.90;;;;;;938475;150;27455;-76
2022/07/19 11:47:23;;;;;;;2.00;1.22;;;38.60;22.10;;;;;;939095;150;27343;-76
2022/07/19 11:49:50;;;;;;;2.00;1.42;;;38.60;22.00;;;;;;938703;150;27400;-75
2022/07/19 11:52:16;;;;;;;4.53;1.47;;;38.60;22.10;;;;;;937598;149;26261;-75
2022/07/19 11:54:43;;;;;;;3.95;1.47;;;38.50;22.00;;;;;;939033;150;27495;-75
2022/07/19 11:57:25;;;;;;;1.92;1.62;;;38.50;22.00;;;;;;938033;150;26206;-76
2022/07/19 11:59:51;;;;;;;3.10;1.52;;;38.50;22.10;;;;;;938991;150;26374;-76
2022/07/19 12:02:18;;;;;;;2.20;1.35;;;38.40;22.00;;;;;;938754;150;27396;-76
2022/07/19 12:04:44;;;;;;;1.62;1.40;;;38.40;22.10;;;;;;939519;150;26302;-76
2022/07/19 12:07:11;;;;;;;3.77;1.50;;;38.30;21.90;;;;;;938501;150;27315;-75
2022/07/19 12:09:37;;;;;;;1.55;1.40;;;38.30;21.90;;;;;;938819;150;27296;-76
2022/07/19 12:12:13;;;;;;;3.08;1.40;;;38.20;21.90;;;;;;938827;150;28052;-75
2022/07/19 12:14:40;;;;;;;1.92;1.55;;;38.10;21.90;;;;;;939059;150;27407;-76
2022/07/19 12:17:18;;;;;;;3.33;1.50;;;38.10;21.90;;;;;;938551;150;26226;-76
2022/07/19 12:19:48;;;;;;;2.05;1.45;;;38.00;22.00;;;;;;938664;150;27304;-76
2022/07/19 12:22:30;;;;;;;2.40;1.45;;;38.00;22.30;;;;;;938503;150;27436;-75
2022/07/19 12:24:57;;;;;;;2.25;1.60;;;38.00;22.30;;;;;;937902;150;27329;-75
2022/07/19 12:27:27;;;;;;;1.50;1.40;;;38.00;22.40;;;;;;937905;150;27365;-75
2022/07/19 12:29:50;;;;;;;2.85;1.60;;;38.00;22.30;;;;;;937777;150;27363;-75
2022/07/19 12:32:16;;;;;;;1.52;1.42;;;38.10;22.50;;;;;;938331;150;27458;-75
2022/07/19 12:34:43;;;;;;;2.20;2.00;;;38.00;22.50;;;;;;937712;150;27301;-75
2022/07/19 12:37:21;;;;;;;1.70;1.60;;;38.10;22.40;;;;;;938839;150;26257;-75
2022/07/19 12:40:00;;;;;;;1.98;1.62;;;38.10;22.50;;;;;;938653;150;27354;-75
2022/07/19 12:42:26;;;;;;;1.50;1.40;;;38.20;22.50;;;;;;939144;150;27360;-75
2022/07/19 12:44:53;;;;;;;1.72;1.42;;;38.20;22.30;;;;;;939201;150;27306;-75
2022/07/19 12:47:19;;;;;;;2.95;1.75;;;38.20;22.50;;;;;;939111;150;27430;-75
2022/07/19 12:49:46;;;;;;;1.70;1.60;;;38.30;22.40;;;;;;939383;150;27324;-75
2022/07/19 12:52:13;;;;;;;2.60;1.50;;;38.30;22.30;;;;;;939261;150;27508;-75